Ardenvoir, Washington
Current Conditions -  °F | °C
As of 12:55 AM on Monday 22 Dec 2014 (Local Time) from KEAT Reporting Station
Clear Clear  
Wind Chill: 41°   Ceiling: Unl
Heat Index: 41°   Visibility: 10mi
Dew Point: 34°   Wind: 3mph
Humidity: 76%   Direction: 260°W
Pressure: 30.02"   Gusts: NA
Location:  47.74°N, 120.37°W
Report Text: KEAT 220855Z AUTO 26003KT 10SM CLR 05/01 A3002 RMK AO2 SLP171 T00500011 51003
Loading
Personal Weather Stations






























Interactive Weather Map New forecast layout! Learn more

10-Day Weather Forecast

Advertisements
Track Severe Weather on mobile